Time;durP1;ratioP1;P1;durP2;ratioP2;P2;SDS_P1;SDS_P2;PMS_P1;PMS_P2;Temp;Humidity;BMP_temperature;BMP_pressure;BME280_temperature;BME280_humidity;BME280_pressure;Samples;Min_cycle;Max_cycle;Signal;HPM_P1;HPM_P2
2021/11/30 00:01:13;;;;;;;9.27;5.97;;;;;;;8.36;55.20;100341.50;5017195;28;96917;-76
2021/11/30 00:03:40;;;;;;;8.93;6.18;;;;;;;8.23;54.98;100340.16;5016001;28;98930;-76
2021/11/30 00:06:08;;;;;;;10.20;6.78;;;;;;;8.36;55.42;100336.25;5016339;28;99259;-75
2021/11/30 00:08:36;;;;;;;10.68;6.93;;;;;;;7.76;56.01;100344.28;5018273;28;96764;-75
2021/11/30 00:11:06;;;;;;;10.10;6.78;;;;;;;8.32;55.68;100347.81;5016422;28;96757;-76
2021/11/30 00:13:34;;;;;;;10.45;7.07;;;;;;;8.24;55.82;100347.16;5016391;28;99055;-76
2021/11/30 00:16:01;;;;;;;11.05;7.28;;;;;;;8.32;55.27;100339.91;5017944;28;101623;-75
2021/11/30 00:18:32;;;;;;;12.02;7.90;;;;;;;8.42;55.40;100339.59;5016783;28;97742;-77
2021/11/30 00:21:00;;;;;;;13.18;8.48;;;;;;;8.35;54.88;100329.25;5016975;28;96814;-75
2021/11/30 00:23:26;;;;;;;10.18;7.63;;;;;;;8.37;55.83;100337.97;5016002;28;99392;-77
2021/11/30 00:25:53;;;;;;;12.77;8.20;;;;;;;8.28;55.54;100327.69;5016002;28;98808;-76
2021/11/30 00:28:19;;;;;;;15.25;9.45;;;;;;;8.24;55.48;100320.81;5015534;28;96945;-77
2021/11/30 00:30:47;;;;;;;15.25;9.93;;;;;;;7.93;56.43;100320.09;5016311;28;96921;-75
2021/11/30 00:33:14;;;;;;;15.02;9.75;;;;;;;7.97;55.71;100322.56;5013444;28;98233;-75
2021/11/30 00:35:41;;;;;;;15.98;10.63;;;;;;;8.23;56.05;100316.47;5016733;28;97646;-76
2021/11/30 00:38:12;;;;;;;16.08;10.05;;;;;;;8.51;55.17;100316.47;5015065;28;97535;-75
2021/11/30 00:40:39;;;;;;;15.18;10.00;;;;;;;8.45;54.79;100323.69;5013971;28;98124;-75
2021/11/30 00:43:06;;;;;;;14.10;9.82;;;;;;;8.42;54.40;100319.38;5013835;28;98502;-75
2021/11/30 00:45:39;;;;;;;16.58;10.63;;;;;;;8.13;55.48;100311.56;5014106;28;99051;-76
2021/11/30 00:48:08;;;;;;;16.20;10.27;;;;;;;8.37;54.40;100309.00;5013753;28;98793;-75
2021/11/30 00:50:37;;;;;;;17.00;10.02;;;;;;;8.39;54.60;100312.47;5012093;28;96784;-75
2021/11/30 00:53:04;;;;;;;14.88;9.57;;;;;;;8.58;54.28;100304.81;5013109;28;99057;-74
2021/11/30 00:55:31;;;;;;;14.38;10.07;;;;;;;8.25;54.43;100301.50;5014314;28;99181;-74
2021/11/30 00:57:57;;;;;;;16.88;10.88;;;;;;;7.66;56.00;100305.16;5012901;28;97168;-74
2021/11/30 01:00:24;;;;;;;16.90;10.75;;;;;;;8.27;55.30;100302.28;5016085;28;97403;-75
2021/11/30 01:02:50;;;;;;;16.95;11.13;;;;;;;7.94;55.23;100290.25;5021935;28;97968;-75
2021/11/30 01:05:18;;;;;;;16.35;10.63;;;;;;;8.22;54.85;100283.16;5018624;28;98858;-75
2021/11/30 01:07:44;;;;;;;14.73;10.38;;;;;;;8.38;54.16;100286.19;5024616;28;96733;-76
2021/11/30 01:10:15;;;;;;;15.65;10.60;;;;;;;8.24;54.63;100291.00;5030389;28;96762;-74
2021/11/30 01:12:41;;;;;;;16.45;10.48;;;;;;;8.44;53.99;100282.47;5023865;28;99342;-78
2021/11/30 01:15:10;;;;;;;16.45;10.40;;;;;;;8.66;53.54;100288.75;5027813;28;99794;-74
2021/11/30 01:17:37;;;;;;;16.83;10.65;;;;;;;8.73;53.32;100290.22;5013151;28;97053;-75
2021/11/30 01:20:04;;;;;;;18.10;10.98;;;;;;;8.51;53.48;100278.72;5011540;28;97956;-75
2021/11/30 01:22:31;;;;;;;18.23;10.90;;;;;;;8.58;53.28;100273.19;5010807;28;99030;-78
2021/11/30 01:24:57;;;;;;;14.82;10.68;;;;;;;8.68;53.59;100279.00;5012429;28;101525;-75
2021/11/30 01:27:25;;;;;;;16.80;11.00;;;;;;;8.43;53.56;100275.50;5012472;28;97337;-75
2021/11/30 01:29:51;;;;;;;15.77;10.10;;;;;;;8.48;53.72;100268.28;5014202;28;96785;-76
2021/11/30 01:32:18;;;;;;;14.68;10.25;;;;;;;8.53;54.08;100266.38;5011559;28;99447;-75
2021/11/30 01:34:44;;;;;;;16.30;10.65;;;;;;;8.39;54.04;100258.94;5011857;28;98983;-74
2021/11/30 01:37:14;;;;;;;17.23;11.05;;;;;;;8.31;54.23;100259.19;5012499;28;97143;-75
2021/11/30 01:39:41;;;;;;;16.35;10.82;;;;;;;8.53;53.85;100250.56;5000748;28;96691;-75
2021/11/30 01:42:08;;;;;;;16.98;11.00;;;;;;;8.58;53.42;100253.91;5013182;28;97622;-75
2021/11/30 01:44:45;;;;;;;16.17;10.68;;;;;;;8.58;53.33;100252.13;5012459;28;98881;-76
2021/11/30 01:47:23;;;;;;;18.90;11.27;;;;;;;8.50;53.28;100255.94;5005783;28;97376;-75
2021/11/30 01:49:51;;;;;;;17.67;11.35;;;;;;;8.54;52.95;100247.00;5013720;28;96894;-75
2021/11/30 01:52:17;;;;;;;16.98;11.27;;;;;;;8.12;53.67;100249.31;5017442;28;98916;-75
2021/11/30 01:54:44;;;;;;;19.27;11.55;;;;;;;8.44;52.83;100241.22;5019978;28;98896;-76
2021/11/30 01:57:13;;;;;;;20.20;12.48;;;;;;;8.29;53.47;100242.56;5017509;28;98431;-75
2021/11/30 01:59:42;;;;;;;18.20;11.15;;;;;;;8.40;53.09;100243.06;5012703;28;96938;-75
2021/11/30 02:02:09;;;;;;;18.40;11.85;;;;;;;8.35;53.45;100242.38;5013436;28;98041;-76
2021/11/30 02:04:36;;;;;;;15.90;11.45;;;;;;;8.46;52.71;100244.66;5016447;28;97824;-74
2021/11/30 02:07:03;;;;;;;18.00;11.73;;;;;;;8.10;53.30;100238.81;5013252;28;96715;-74
2021/11/30 02:09:30;;;;;;;16.48;10.65;;;;;;;8.31;52.91;100235.50;5011877;28;96851;-75
2021/11/30 02:11:57;;;;;;;16.77;11.25;;;;;;;7.74;54.81;100235.66;5013375;28;98163;-78
2021/11/30 02:14:23;;;;;;;20.27;12.35;;;;;;;8.18;53.45;100231.53;5012233;28;99242;-76
2021/11/30 02:16:51;;;;;;;20.85;11.80;;;;;;;8.18;53.24;100228.06;5010440;28;98276;-75
2021/11/30 02:19:18;;;;;;;17.35;11.23;;;;;;;8.20;53.22;100224.47;5017442;28;96801;-77
2021/11/30 02:21:46;;;;;;;20.50;12.20;;;;;;;8.44;52.79;100220.16;5011178;28;99043;-76
2021/11/30 02:24:13;;;;;;;20.63;12.00;;;;;;;8.42;52.45;100213.22;5011737;28;98996;-75
2021/11/30 02:26:41;;;;;;;18.65;11.73;;;;;;;8.37;52.33;100210.75;5012112;28;98893;-74
2021/11/30 02:29:10;;;;;;;19.00;12.55;;;;;;;8.06;52.80;100200.38;5014175;28;97152;-77
2021/11/30 02:31:38;;;;;;;21.63;13.55;;;;;;;8.30;53.07;100199.56;5012531;28;99008;-75
2021/11/30 02:34:06;;;;;;;21.30;12.65;;;;;;;8.31;52.59;100193.41;5013852;28;99408;-75
2021/11/30 02:36:37;;;;;;;19.80;12.93;;;;;;;8.47;52.60;100179.69;5013349;28;96932;-75
2021/11/30 02:39:07;;;;;;;21.15;13.73;;;;;;;7.82;54.44;100169.63;5015153;28;96819;-75
2021/11/30 02:41:35;;;;;;;20.75;13.65;;;;;;;8.11;53.61;100180.03;5008205;28;99058;-75
2021/11/30 02:44:01;;;;;;;22.23;14.18;;;;;;;8.38;53.04;100171.22;5013849;28;99509;-76
2021/11/30 02:46:33;;;;;;;20.48;13.88;;;;;;;8.27;53.31;100177.75;5013098;28;97162;-75
2021/11/30 02:49:00;;;;;;;23.38;14.15;;;;;;;8.11;53.27;100169.50;5018281;28;96754;-75
2021/11/30 02:51:27;;;;;;;23.77;14.02;;;;;;;8.32;52.96;100175.84;5015915;28;98879;-75
2021/11/30 02:53:54;;;;;;;25.83;14.05;;;;;;;8.11;52.72;100153.72;5017120;28;99545;-75
2021/11/30 02:56:22;;;;;;;20.17;13.60;;;;;;;8.22;53.02;100143.66;5017661;28;96711;-74
2021/11/30 02:58:51;;;;;;;22.27;13.57;;;;;;;8.16;53.12;100140.38;5017073;28;97135;-75
2021/11/30 03:01:17;;;;;;;20.77;13.38;;;;;;;8.13;52.25;100115.06;5014974;28;98946;-76
2021/11/30 03:03:44;;;;;;;22.58;14.48;;;;;;;8.42;52.30;100115.78;5014952;28;98809;-75
2021/11/30 03:06:11;;;;;;;22.70;14.00;;;;;;;8.42;52.11;100108.75;5014284;28;96771;-75
2021/11/30 03:08:39;;;;;;;23.05;14.05;;;;;;;8.43;51.64;100112.25;5015293;28;96659;-75
2021/11/30 03:11:07;;;;;;;23.35;14.77;;;;;;;8.42;52.22;100107.91;5014029;28;99048;-75
2021/11/30 03:13:34;;;;;;;26.48;15.60;;;;;;;8.42;52.15;100105.25;5015977;28;99171;-75
2021/11/30 03:16:01;;;;;;;25.63;15.15;;;;;;;8.60;51.89;100099.34;5014423;28;96833;-76
2021/11/30 03:18:28;;;;;;;22.40;14.85;;;;;;;8.49;51.82;100089.19;5015489;28;96834;-75
2021/11/30 03:20:55;;;;;;;24.50;15.02;;;;;;;8.06;52.86;100081.97;5015186;28;98991;-74
2021/11/30 03:23:21;;;;;;;23.40;14.52;;;;;;;8.21;52.48;100073.50;5015832;28;99043;-75
2021/11/30 03:25:48;;;;;;;28.08;15.98;;;;;;;8.33;51.75;100067.00;5015417;28;96829;-76
2021/11/30 03:28:14;;;;;;;25.38;15.07;;;;;;;8.31;52.58;100066.19;5016230;28;96866;-76
2021/11/30 03:30:57;;;;;;;22.35;14.77;;;;;;;8.34;52.03;100063.41;5015255;28;98769;-75
2021/11/30 03:36:07;;;;;;;24.20;15.02;;;;;;;8.24;51.76;100049.72;5014340;28;97071;-75
2021/11/30 03:38:34;;;;;;;27.17;15.55;;;;;;;8.33;52.08;100057.31;5015860;28;96821;-76
2021/11/30 03:41:01;;;;;;;23.63;15.15;;;;;;;8.24;51.80;100051.50;5014701;28;99546;-76
2021/11/30 03:43:27;;;;;;;22.65;14.60;;;;;;;8.08;52.72;100040.66;5014546;28;98201;-75
2021/11/30 03:45:55;;;;;;;23.50;15.23;;;;;;;8.11;52.62;100023.91;5014731;28;98775;-76
2021/11/30 03:48:21;;;;;;;26.20;15.30;;;;;;;8.10;52.32;100022.19;5015334;28;96862;-75
2021/11/30 03:50:48;;;;;;;25.08;15.43;;;;;;;8.07;52.50;100015.28;5013619;28;99451;-75
2021/11/30 03:53:14;;;;;;;25.40;15.52;;;;;;;8.00;52.31;100000.63;5014062;28;99225;-76
2021/11/30 03:55:41;;;;;;;27.08;15.77;;;;;;;7.82;52.99;99991.63;5006396;28;96770;-75
2021/11/30 03:58:07;;;;;;;23.02;15.50;;;;;;;8.01;52.49;99984.78;5012120;28;96806;-75
2021/11/30 04:00:34;;;;;;;21.45;14.57;;;;;;;7.99;52.74;99978.72;5012120;28;99187;-75
2021/11/30 04:03:01;;;;;;;22.35;14.38;;;;;;;8.11;52.51;99973.91;5013398;28;99037;-76
2021/11/30 04:05:28;;;;;;;26.20;13.85;;;;;;;8.19;52.18;99963.97;5011668;28;97474;-76
2021/11/30 04:07:54;;;;;;;23.23;14.60;;;;;;;8.05;52.18;99956.59;5015219;28;97028;-75
2021/11/30 04:10:21;;;;;;;24.23;15.02;;;;;;;7.99;52.09;99952.41;5013318;28;99056;-75
2021/11/30 04:12:48;;;;;;;23.67;14.68;;;;;;;7.91;52.46;99948.34;5013600;28;98007;-74
2021/11/30 04:15:15;;;;;;;23.10;14.82;;;;;;;8.24;51.85;99941.81;5016300;28;96951;-75
2021/11/30 04:17:45;;;;;;;24.63;15.15;;;;;;;8.31;51.72;99929.31;5006847;28;96853;-75
2021/11/30 04:20:13;;;;;;;23.30;14.30;;;;;;;8.27;51.59;99927.69;5013463;28;98860;-75
2021/11/30 04:22:41;;;;;;;24.48;14.95;;;;;;;8.11;51.89;99932.66;5014774;28;99112;-75
2021/11/30 04:25:10;;;;;;;25.25;14.10;;;;;;;8.32;51.45;99916.09;5013309;28;99053;-77
2021/11/30 04:27:37;;;;;;;22.52;13.63;;;;;;;8.18;51.97;99915.72;5014790;28;97001;-75
2021/11/30 04:30:04;;;;;;;21.98;14.25;;;;;;;7.98;52.67;99911.25;5015195;28;99153;-76
2021/11/30 04:32:31;;;;;;;19.70;13.40;;;;;;;7.99;52.08;99906.84;5015299;28;98959;-76
2021/11/30 04:34:57;;;;;;;20.58;13.18;;;;;;;7.97;52.47;99892.88;5015411;28;96799;-76
2021/11/30 04:37:25;;;;;;;21.15;13.20;;;;;;;7.76;53.26;99885.78;5015015;28;97080;-77
2021/11/30 04:39:52;;;;;;;20.15;12.80;;;;;;;8.03;52.80;99887.38;5022837;28;99048;-77
2021/11/30 04:42:20;;;;;;;20.73;12.88;;;;;;;8.01;52.88;99883.94;5032682;28;99094;-75
2021/11/30 04:44:52;;;;;;;19.13;12.95;;;;;;;7.95;53.52;99881.53;5032023;28;96871;-76
2021/11/30 04:47:18;;;;;;;20.17;12.93;;;;;;;7.99;53.04;99884.03;5029082;28;97707;-76
2021/11/30 04:49:54;;;;;;;23.45;12.88;;;;;;;7.89;53.63;99876.50;5032329;28;98120;-77
2021/11/30 04:52:20;;;;;;;21.03;12.40;;;;;;;7.78;54.17;99861.16;5016827;28;99274;-75
2021/11/30 04:54:48;;;;;;;21.42;13.15;;;;;;;7.98;54.05;99853.34;5015798;28;96722;-75
2021/11/30 04:57:15;;;;;;;21.67;13.15;;;;;;;7.98;54.03;99853.34;5015217;28;96689;-76
2021/11/30 04:59:41;;;;;;;22.98;13.07;;;;;;;7.71;55.19;99838.63;4998267;28;99143;-75
2021/11/30 05:02:08;;;;;;;20.60;12.27;;;;;;;7.66;54.60;99837.09;5015179;28;99298;-76
2021/11/30 05:04:34;;;;;;;24.00;13.02;;;;;;;7.60;55.28;99831.16;5015414;28;96776;-77
2021/11/30 05:07:01;;;;;;;20.05;12.57;;;;;;;7.68;55.05;99824.75;5015496;28;97053;-76
2021/11/30 05:09:27;;;;;;;20.98;12.40;;;;;;;7.60;55.99;99814.53;5015520;28;98932;-75
2021/11/30 05:11:55;;;;;;;19.55;11.95;;;;;;;7.65;55.83;99811.72;5016243;28;98884;-75
2021/11/30 05:14:21;;;;;;;19.00;11.18;;;;;;;7.87;55.40;99808.22;5008148;28;96725;-76
2021/11/30 05:16:48;;;;;;;19.98;12.50;;;;;;;7.61;55.98;99796.03;5010199;28;97689;-76
2021/11/30 05:19:14;;;;;;;19.30;11.95;;;;;;;7.79;55.50;99791.00;5012825;28;98967;-75
2021/11/30 05:21:41;;;;;;;18.27;11.60;;;;;;;7.78;55.64;99790.16;5013031;28;99045;-76
2021/11/30 05:24:09;;;;;;;18.23;11.07;;;;;;;7.37;56.48;99778.59;5011724;28;96850;-74
2021/11/30 05:26:36;;;;;;;19.27;11.95;;;;;;;7.56;56.30;99771.72;5014184;28;96990;-74
2021/11/30 05:29:06;;;;;;;20.08;11.70;;;;;;;7.70;56.14;99781.69;5014845;28;99014;-76
2021/11/30 05:31:32;;;;;;;22.50;12.30;;;;;;;7.75;56.31;99757.84;5023084;28;97950;-76
2021/11/30 05:33:59;;;;;;;20.50;11.57;;;;;;;7.71;56.18;99751.84;5014136;28;96777;-74
2021/11/30 05:36:26;;;;;;;19.55;11.18;;;;;;;7.74;55.99;99753.53;5013964;28;96755;-75
2021/11/30 05:38:53;;;;;;;21.20;11.55;;;;;;;7.63;56.25;99745.19;5014144;28;98971;-74
2021/11/30 05:41:19;;;;;;;18.23;10.48;;;;;;;7.26;56.67;99741.34;5012237;28;99046;-74
2021/11/30 05:43:46;;;;;;;18.55;11.43;;;;;;;7.42;56.82;99728.47;5013579;28;96827;-75
2021/11/30 05:46:13;;;;;;;17.38;11.35;;;;;;;7.22;57.84;99727.47;5035183;22;96949;-75
2021/11/30 05:48:40;;;;;;;17.83;10.75;;;;;;;7.32;57.20;99722.72;5064102;27;99480;-73
2021/11/30 05:51:07;;;;;;;18.63;11.27;;;;;;;7.48;56.86;99708.06;5064547;27;98228;-75
2021/11/30 05:53:33;;;;;;;16.88;10.40;;;;;;;7.28;56.57;99710.63;5056974;27;96844;-75
2021/11/30 05:56:01;;;;;;;20.75;11.43;;;;;;;7.23;57.13;99704.66;5052797;27;96684;-75
2021/11/30 05:58:29;;;;;;;15.77;10.50;;;;;;;7.17;56.69;99689.13;5051610;27;97823;-76
2021/11/30 06:01:01;;;;;;;20.52;10.70;;;;;;;7.13;58.21;99679.69;5043243;27;99077;-76
2021/11/30 06:03:31;;;;;;;19.45;10.38;;;;;;;7.43;57.01;99672.34;5047461;27;96803;-75
2021/11/30 06:05:58;;;;;;;17.48;9.63;;;;;;;7.33;57.20;99664.00;5040358;27;97351;-76
2021/11/30 06:08:26;;;;;;;20.40;10.65;;;;;;;7.38;56.97;99664.66;5049222;27;98859;-76
2021/11/30 06:10:52;;;;;;;19.05;10.10;;;;;;;7.60;56.43;99643.63;5038114;27;98848;-78
2021/11/30 06:13:19;;;;;;;15.85;9.80;;;;;;;7.57;56.67;99633.25;5035905;27;96781;-76
2021/11/30 06:15:45;;;;;;;16.33;9.45;;;;;;;7.56;56.40;99621.88;5041483;27;97209;-77
2021/11/30 06:18:12;;;;;;;20.23;10.32;;;;;;;7.20;57.83;99616.34;5037555;27;99672;-78
2021/11/30 06:20:39;;;;;;;18.00;9.38;;;;;;;7.19;57.52;99596.22;5049099;27;98923;-75
2021/11/30 06:23:06;;;;;;;16.85;9.85;;;;;;;7.15;57.77;99594.63;5048177;27;97940;-76
2021/11/30 06:25:32;;;;;;;17.75;9.60;;;;;;;6.84;58.50;99588.00;5044631;27;97901;-77
2021/11/30 06:27:59;;;;;;;18.73;10.55;;;;;;;7.37;57.70;99584.09;5051620;27;98928;-76
2021/11/30 06:30:25;;;;;;;16.20;9.23;;;;;;;6.85;58.59;99587.09;5042111;27;99152;-75
2021/11/30 06:32:52;;;;;;;16.58;9.30;;;;;;;6.67;58.97;99579.00;5044591;27;96859;-75
2021/11/30 06:35:18;;;;;;;16.58;9.50;;;;;;;6.88;59.29;99585.22;5049188;27;97098;-76
2021/11/30 06:37:46;;;;;;;21.38;10.10;;;;;;;7.12;58.32;99572.88;5047567;27;98767;-76
2021/11/30 06:40:12;;;;;;;17.20;9.60;;;;;;;6.97;58.75;99560.34;5050117;27;98993;-76
2021/11/30 06:42:40;;;;;;;20.85;9.93;;;;;;;7.17;58.72;99552.53;5041723;27;96912;-75
2021/11/30 06:45:07;;;;;;;16.33;8.75;;;;;;;7.20;58.03;99541.91;5057549;27;96593;-76
2021/11/30 06:47:34;;;;;;;17.65;8.50;;;;;;;7.24;58.27;99526.84;5047838;27;99091;-76
2021/11/30 06:50:01;;;;;;;19.05;9.18;;;;;;;7.14;59.33;99529.88;5042380;27;100789;-75
2021/11/30 06:52:27;;;;;;;16.60;8.65;;;;;;;7.20;57.92;99518.25;5047578;27;97208;-76
2021/11/30 06:54:55;;;;;;;13.10;9.00;;;;;;;7.38;57.99;99504.34;5052333;27;98629;-76
2021/11/30 06:57:22;;;;;;;12.65;8.10;;;;;;;7.04;59.07;99509.28;5037582;27;99007;-76
2021/11/30 06:59:48;;;;;;;18.33;9.02;;;;;;;6.92;58.74;99494.03;5050303;27;98815;-76
2021/11/30 07:02:15;;;;;;;14.35;7.93;;;;;;;7.11;59.13;99477.44;5050948;27;96838;-76
2021/11/30 07:04:43;;;;;;;12.50;8.15;;;;;;;7.23;58.67;99481.34;5049895;27;96784;-77
2021/11/30 07:07:20;;;;;;;15.82;9.15;;;;;;;7.15;58.88;99478.19;5039240;27;98853;-75
2021/11/30 07:10:07;;;;;;;15.82;8.23;;;;;;;7.16;59.58;99469.38;5041628;27;100443;-76
2021/11/30 07:12:54;;;;;;;22.17;8.38;;;;;;;7.43;58.82;99454.22;5045374;27;97411;-75
2021/11/30 07:15:22;;;;;;;13.02;7.93;;;;;;;7.02;59.67;99448.09;5045232;27;96941;-76
2021/11/30 07:17:51;;;;;;;18.95;8.38;;;;;;;7.02;59.58;99443.69;5038370;27;99383;-76
2021/11/30 07:20:17;;;;;;;13.70;8.20;;;;;;;7.12;59.39;99444.16;5046414;27;99218;-76
2021/11/30 07:22:43;;;;;;;14.60;8.25;;;;;;;7.15;59.03;99428.28;5045642;27;97239;-76
2021/11/30 07:25:10;;;;;;;17.75;8.25;;;;;;;7.04;59.77;99415.59;5045137;27;97725;-75
2021/11/30 07:27:38;;;;;;;16.52;8.30;;;;;;;7.05;60.13;99417.28;5038721;27;99299;-75
2021/11/30 07:30:05;;;;;;;19.77;8.02;;;;;;;7.00;58.62;99410.53;5045160;27;99278;-76
2021/11/30 07:32:32;;;;;;;13.98;8.27;;;;;;;6.89;60.28;99420.66;5043739;27;97676;-74
2021/11/30 07:34:58;;;;;;;13.88;6.95;;;;;;;7.19;59.92;99406.22;5044986;27;96770;-76
2021/11/30 07:37:24;;;;;;;10.23;7.07;;;;;;;7.16;59.35;99404.56;5042187;27;99402;-77
2021/11/30 07:39:51;;;;;;;11.85;7.40;;;;;;;7.33;59.61;99392.47;5039985;27;98933;-76
2021/11/30 07:42:18;;;;;;;12.55;6.63;;;;;;;7.31;59.60;99383.78;5059668;27;97065;-76
2021/11/30 07:44:46;;;;;;;11.05;6.70;;;;;;;6.99;59.92;99383.41;5066883;27;97867;-79
2021/11/30 07:47:13;;;;;;;10.93;6.60;;;;;;;6.83;60.10;99378.88;5054565;27;99359;-76
2021/11/30 07:49:39;;;;;;;10.45;6.53;;;;;;;7.00;60.65;99373.75;5049035;27;98693;-76
2021/11/30 07:52:06;;;;;;;9.32;6.45;;;;;;;7.17;60.05;99361.59;5048204;27;97437;-77
2021/11/30 07:54:32;;;;;;;9.70;6.13;;;;;;;7.07;60.03;99359.47;5051771;27;97028;-78
2021/11/30 07:56:59;;;;;;;8.02;5.80;;;;;;;7.23;59.61;99360.47;5056541;27;97264;-74
2021/11/30 07:59:25;;;;;;;7.55;5.68;;;;;;;7.27;59.26;99353.34;5059350;27;97848;-76
2021/11/30 08:01:53;;;;;;;9.25;6.25;;;;;;;7.01;59.88;99343.97;5058455;27;97305;-78
2021/11/30 08:04:20;;;;;;;8.10;5.63;;;;;;;7.20;60.42;99340.47;5056167;27;97309;-78
2021/11/30 08:06:46;;;;;;;9.05;6.32;;;;;;;7.37;59.88;99347.59;5055787;27;98861;-78
2021/11/30 08:09:12;;;;;;;8.45;5.13;;;;;;;7.06;60.44;99331.47;5055010;27;98379;-77
2021/11/30 08:11:43;;;;;;;7.00;5.43;;;;;;;7.38;59.98;99325.66;5062331;27;99240;-78
2021/11/30 08:14:10;;;;;;;7.25;5.45;;;;;;;7.02;59.89;99314.16;5058339;27;97540;-77
2021/11/30 08:16:38;;;;;;;7.78;5.15;;;;;;;7.00;61.07;99313.34;5062029;27;97894;-77
2021/11/30 08:19:06;;;;;;;8.10;5.07;;;;;;;7.48;59.79;99300.66;5058308;27;98130;-76
2021/11/30 08:21:32;;;;;;;7.30;5.43;;;;;;;7.60;59.00;99297.47;5056353;27;96988;-76
2021/11/30 08:23:59;;;;;;;6.63;5.10;;;;;;;7.34;60.29;99289.94;5061465;27;97181;-75
2021/11/30 08:26:25;;;;;;;7.40;5.13;;;;;;;7.28;60.12;99278.84;5061328;27;98135;-77
2021/11/30 08:28:52;;;;;;;7.05;4.78;;;;;;;7.03;60.95;99258.91;5063627;27;100350;-77
2021/11/30 08:31:18;;;;;;;5.72;4.90;;;;;;;6.87;61.71;99267.53;5059334;27;96809;-77
2021/11/30 08:33:45;;;;;;;5.30;4.60;;;;;;;7.02;61.38;99261.63;5054752;27;97415;-76
2021/11/30 08:36:13;;;;;;;8.15;5.05;;;;;;;7.11;61.25;99255.94;5059981;27;97839;-76
2021/11/30 08:38:39;;;;;;;6.30;4.90;;;;;;;7.21;61.29;99246.75;5056770;27;98310;-75
2021/11/30 08:41:06;;;;;;;6.47;5.22;;;;;;;7.39;60.31;99253.78;5062546;27;98129;-75
2021/11/30 08:43:32;;;;;;;6.88;4.75;;;;;;;7.20;60.83;99235.38;5061775;27;97933;-76
2021/11/30 08:45:59;;;;;;;4.93;4.43;;;;;;;6.97;61.39;99230.28;5016652;27;1115146;-76
2021/11/30 08:48:26;;;;;;;4.53;4.05;;;;;;;7.37;61.00;99237.22;5058105;27;97913;-77
2021/11/30 08:50:53;;;;;;;5.53;4.28;;;;;;;7.29;60.92;99231.47;5059497;27;96529;-76
2021/11/30 08:53:21;;;;;;;6.55;4.35;;;;;;;7.28;60.51;99216.66;5060201;27;96095;-76
2021/11/30 08:55:47;;;;;;;5.60;4.47;;;;;;;7.18;61.00;99213.56;5054727;27;98068;-76
2021/11/30 08:58:14;;;;;;;6.18;4.05;;;;;;;7.26;60.84;99210.59;5061917;27;97888;-77
2021/11/30 09:00:40;;;;;;;7.20;4.35;;;;;;;7.42;60.46;99203.69;5063288;27;96953;-75
2021/11/30 09:03:07;;;;;;;6.30;4.15;;;;;;;7.68;59.70;99209.50;5058110;27;98526;-76
2021/11/30 09:05:34;;;;;;;5.22;4.13;;;;;;;7.77;59.90;99216.94;5065182;27;99504;-76
2021/11/30 09:08:00;;;;;;;6.25;4.28;;;;;;;7.63;60.81;99201.81;5066964;27;98595;-76
2021/11/30 09:10:28;;;;;;;4.68;3.97;;;;;;;7.59;60.13;99210.78;5068654;27;96593;-76
2021/11/30 09:12:55;;;;;;;5.35;3.88;;;;;;;7.63;60.73;99200.97;5071710;27;96829;-74
2021/11/30 09:15:21;;;;;;;5.45;3.72;;;;;;;7.72;60.05;99201.41;5064611;27;97922;-77
2021/11/30 09:17:48;;;;;;;4.72;4.22;;;;;;;7.89;59.73;99206.69;5067701;27;98189;-75
2021/11/30 09:20:15;;;;;;;4.75;3.65;;;;;;;7.13;62.89;99189.31;5070216;27;98108;-74
2021/11/30 09:22:42;;;;;;;5.15;3.45;;;;;;;7.49;61.72;99197.22;5064249;27;97332;-75
2021/11/30 09:25:10;;;;;;;4.30;3.67;;;;;;;7.25;61.85;99195.75;5067251;27;97792;-75
2021/11/30 09:27:38;;;;;;;4.47;3.70;;;;;;;7.53;61.09;99172.50;5061970;27;99023;-75
2021/11/30 09:30:08;;;;;;;4.00;3.40;;;;;;;7.61;61.05;99178.22;5065749;27;97163;-74
2021/11/30 09:32:35;;;;;;;7.28;3.35;;;;;;;7.86;61.15;99177.06;5065098;27;95988;-74
2021/11/30 09:35:02;;;;;;;4.93;4.05;;;;;;;7.98;61.11;99168.56;5058060;27;100775;-75
2021/11/30 09:37:32;;;;;;;5.57;3.50;;;;;;;7.83;61.70;99174.56;5062724;27;99293;-75
2021/11/30 09:40:03;;;;;;;3.33;3.03;;;;;;;7.79;61.52;99152.00;5060517;27;98426;-76
2021/11/30 09:42:29;;;;;;;3.95;3.13;;;;;;;7.64;61.00;99155.34;5066135;27;97467;-77
2021/11/30 09:44:58;;;;;;;3.50;3.20;;;;;;;7.62;62.65;99147.53;5061377;27;97935;-78
2021/11/30 09:47:25;;;;;;;6.60;3.08;;;;;;;7.22;63.40;99140.72;5063859;27;96693;-75
2021/11/30 09:49:52;;;;;;;4.03;2.97;;;;;;;7.53;63.03;99142.75;5062890;27;97184;-75
2021/11/30 09:52:18;;;;;;;3.20;2.60;;;;;;;7.49;63.13;99131.50;5062560;27;98026;-75
2021/11/30 09:54:45;;;;;;;4.70;3.03;;;;;;;7.55;63.05;99135.63;5065398;27;96470;-78
2021/11/30 09:57:11;;;;;;;4.65;2.80;;;;;;;7.71;62.83;99119.97;5062401;27;101439;-76
2021/11/30 09:59:40;;;;;;;5.78;3.00;;;;;;;8.07;62.23;99107.59;5067312;27;96395;-79
2021/11/30 10:02:08;;;;;;;3.35;2.95;;;;;;;7.96;62.80;99110.75;5058229;27;97224;-77
2021/11/30 10:04:37;;;;;;;4.82;2.90;;;;;;;8.14;61.50;99103.69;5046195;27;100077;-78
2021/11/30 10:07:03;;;;;;;5.18;2.97;;;;;;;7.91;61.42;99097.00;5043322;27;98128;-77
2021/11/30 10:09:30;;;;;;;5.60;2.90;;;;;;;8.37;61.75;99092.88;5046681;27;96713;-76
2021/11/30 10:11:58;;;;;;;2.70;2.50;;;;;;;8.04;62.68;99097.22;5040314;27;98062;-75
2021/11/30 10:14:33;;;;;;;2.97;2.60;;;;;;;8.12;63.39;99110.00;5040282;27;98846;-76
2021/11/30 10:17:16;;;;;;;3.20;2.90;;;;;;;8.21;62.93;99094.56;5043292;27;98784;-75
2021/11/30 10:19:45;;;;;;;3.22;2.83;;;;;;;8.60;62.40;99106.63;5036550;27;96863;-77
2021/11/30 10:22:11;;;;;;;3.75;2.50;;;;;;;7.91;64.26;99097.00;5043011;27;97611;-75
2021/11/30 10:24:38;;;;;;;2.33;2.13;;;;;;;7.88;64.55;99105.03;5038248;27;98098;-76
2021/11/30 10:27:04;;;;;;;2.88;2.67;;;;;;;7.75;65.65;99100.47;5038902;27;99053;-75
2021/11/30 10:29:40;;;;;;;2.92;2.60;;;;;;;8.24;64.60;99093.56;5038834;27;96836;-76
2021/11/30 10:32:07;;;;;;;1.52;1.42;;;;;;;7.81;65.45;99079.16;5037638;27;97023;-75
2021/11/30 10:34:35;;;;;;;3.08;2.28;;;;;;;8.14;65.76;99085.28;5043035;27;99597;-76
2021/11/30 10:37:09;;;;;;;4.95;2.42;;;;;;;7.97;64.71;99077.41;5040534;27;97744;-76
2021/11/30 10:39:38;;;;;;;2.58;2.38;;;;;;;8.31;64.73;99066.88;5047493;27;98728;-75
2021/11/30 10:42:14;;;;;;;3.95;2.70;;;;;;;8.31;64.27;99053.72;5044338;27;96908;-74
2021/11/30 10:44:41;;;;;;;3.58;2.10;;;;;;;8.69;64.11;99054.28;5035335;27;99388;-74
2021/11/30 10:47:10;;;;;;;6.93;2.28;;;;;;;8.75;63.76;99047.84;5032738;27;99406;-75
2021/11/30 10:49:46;;;;;;;2.78;2.25;;;;;;;8.52;65.00;99051.75;5035369;27;98683;-75
2021/11/30 10:52:17;;;;;;;2.42;2.15;;;;;;;8.27;65.97;99046.06;5037853;27;96898;-75
2021/11/30 10:54:44;;;;;;;3.85;2.38;;;;;;;8.67;64.30;99045.63;5044238;27;98897;-76
2021/11/30 10:57:10;;;;;;;2.95;2.30;;;;;;;8.57;64.56;99036.53;5041522;27;98842;-75
2021/11/30 10:59:37;;;;;;;5.70;2.20;;;;;;;8.87;64.20;99041.03;5038920;27;97391;-77
2021/11/30 11:02:04;;;;;;;3.17;2.60;;;;;;;9.17;63.33;99029.66;5044761;27;96898;-75
2021/11/30 11:04:32;;;;;;;4.20;2.92;;;;;;;9.21;62.85;99035.59;5042370;27;99262;-75
2021/11/30 11:07:09;;;;;;;9.23;5.53;;;;;;;9.28;61.96;99038.72;5044749;27;99001;-75
2021/11/30 11:09:42;;;;;;;4.45;2.60;;;;;;;9.16;62.40;99033.22;5046549;27;96890;-76
2021/11/30 11:12:10;;;;;;;4.25;2.33;;;;;;;9.52;62.06;99035.53;5049678;27;99892;-77
2021/11/30 11:14:45;;;;;;;5.30;2.22;;;;;;;9.40;61.89;99041.50;5045673;27;100892;-75
2021/11/30 11:17:12;;;;;;;4.85;1.70;;;;;;;8.98;62.36;99043.94;5042048;27;98917;-75
2021/11/30 11:19:40;;;;;;;3.03;1.80;;;;;;;8.85;64.05;99062.22;5051074;27;96728;-73
2021/11/30 11:22:17;;;;;;;5.80;1.85;;;;;;;9.26;63.46;99043.22;5043502;27;97301;-74
2021/11/30 11:24:48;;;;;;;3.95;2.25;;;;;;;9.50;62.82;99047.09;5049896;27;98948;-75
2021/11/30 11:27:16;;;;;;;4.22;2.13;;;;;;;9.45;62.62;99036.00;5048509;27;101590;-74
2021/11/30 11:29:44;;;;;;;2.95;1.77;;;;;;;9.30;62.95;99031.59;5050203;27;97194;-74
2021/11/30 11:32:12;;;;;;;4.57;1.40;;;;;;;9.12;63.78;99031.69;5044358;27;96985;-77
2021/11/30 11:34:40;;;;;;;3.25;1.10;;;;;;;9.27;63.43;99024.69;5043799;27;97740;-74